Portada
METAR-TAF:

METAR-TAF

Aeropuertos :

Aeropuerto de Tetuán-Sania Ramel

Tetuán, Marruecos

latitud: 35-35N, longitud: 005-20W, altitud: 10 m

Observación

El informe se hizo hace 31 minutos, a las 23:00 UTC
Viento 8 kt del este
Temperatura 23°C
Humedad 89%
Presión 1015 hPa
Visibilidad: 6000 m
Escasas nubes a una altura de 1000 ft
Nubes dispersas a una altura de 2300 ft

METAR: GMTN 212300Z 08008KT 6000 FEW010 SCT023 23/21 Q1015 NOSIG

Hora: 00:31 (23:31 UTC)


TAF: falta

Observaciones y pronósticos meteorológicos de más de 4000 aeropuertos (mensajes METAR y TAF).

Los puntos amarillos y rojos representan las estaciones disponibles.

Ponga el ratón en el punto deseado para ver el nombre de la estación.

Haga clic para ver las observaciones y los pronósticos meteorológicos.

Para cambiar el mapa : haga clic en los botones verdes con una cruz de color negro para hacer un zoom, en el botón verde con un guión para alejar o en las flechas verdes para mapas adyacentes.


METAR-TAF: